Check out our new BloomSky Weather System.

Active alerts


No alerts


Thunder radar  blitzortung!


Rain radar more information rain snow radar


Visit our other weather sites:

Template documentation
and downloads

And another site



Weather Underground History page Text

Daily Summary for September 5, 2017 Units:  English    Metric   Both
« Previous Day
Next Day »
Daily Weekly Monthly Yearly Custom
  High: Low: Average:
Temperature: TemperatureF °F 72.7 °F 82.5 °F
Dew Point: DewpointF °F 71.8 °F 74.1 °F
Humidity: Humidity % 52 % 78 %
Wind Speed: WindSpeedMPH mph 0.0 mph 0.8 mph
Wind Gust: WindSpeedGustMPH mph - -
Wind:- - SSW
Pressure: PressureIn in 29.89 in -
Precipitation: 0.00 in    
Historical Graphs
 
 
Tabular Data for September 5, 2017
Time Temperature Dew Point Pressure Wind Wind Speed Wind Gust Humidity Rainfall Rate (Hourly)
TemperatureF °F DewpointF °F PressureIn in Calm     Humidity % HourlyPrecipIn in
00:04 77.4 °F 73.6 °F 29.97 in Calm     88 % 0.00 in
00:09 77.2 °F 73.4 °F 29.97 in Calm     88 % 0.00 in
00:14 76.8 °F 73.4 °F 29.97 in Calm     89 % 0.00 in
00:24 76.6 °F 73.2 °F 29.97 in Calm     89 % 0.00 in
00:29 76.5 °F 73.2 °F 29.97 in Calm     90 % 0.00 in
00:34 76.5 °F 73.2 °F 29.97 in Calm     90 % 0.00 in
00:39 76.3 °F 73.0 °F 29.97 in Calm     90 % 0.00 in
00:45 76.1 °F 72.9 °F 29.97 in Calm     90 % 0.00 in
00:50 75.9 °F 73.0 °F 29.97 in Calm     91 % 0.00 in
00:55 75.7 °F 72.9 °F 29.97 in Calm     91 % 0.00 in
01:00 75.7 °F 73.2 °F 29.97 in Calm     92 % 0.00 in
01:05 75.6 °F 73.0 °F 29.97 in Calm     92 % 0.00 in
01:10 75.4 °F 72.9 °F 29.97 in Calm     92 % 0.00 in
01:15 75.2 °F 73.0 °F 29.97 in Calm     93 % 0.00 in
01:20 75.0 °F 72.9 °F 29.97 in Calm     93 % 0.00 in
01:25 74.8 °F 72.7 °F 29.97 in Calm     93 % 0.00 in
01:30 74.8 °F 72.7 °F 29.97 in Calm     93 % 0.00 in
01:35 74.8 °F 73.0 °F 29.97 in Calm     94 % 0.00 in
01:40 74.8 °F 73.0 °F 29.97 in Calm     94 % 0.00 in
01:45 74.7 °F 72.9 °F 29.97 in Calm     94 % 0.00 in
01:50 74.7 °F 72.9 °F 29.97 in Calm     94 % 0.00 in
01:55 74.7 °F 73.2 °F 29.97 in Calm     95 % 0.00 in
02:00 74.7 °F 72.9 °F 29.97 in Calm     94 % 0.00 in
02:05 74.5 °F 72.7 °F 29.97 in Calm     94 % 0.00 in
02:10 74.5 °F 73.0 °F 29.96 in Calm     95 % 0.00 in
02:15 74.5 °F 73.0 °F 29.96 in Calm     95 % 0.00 in
02:20 74.5 °F 73.0 °F 29.97 in Calm     95 % 0.00 in
02:25 74.5 °F 73.0 °F 29.97 in Calm     95 % 0.00 in
02:30 74.5 °F 73.0 °F 29.97 in Calm     95 % 0.00 in
02:35 74.3 °F 72.9 °F 29.97 in Calm     95 % 0.00 in
02:40 74.1 °F 72.7 °F 29.97 in Calm     95 % 0.00 in
02:45 73.9 °F 72.5 °F 29.97 in Calm     95 % 0.00 in
02:50 73.9 °F 72.7 °F 29.97 in Calm     96 % 0.00 in
02:55 73.9 °F 72.7 °F 29.97 in Calm     96 % 0.00 in
03:00 73.9 °F 72.7 °F 29.97 in Calm     96 % 0.00 in
03:05 73.9 °F 72.7 °F 29.97 in Calm     96 % 0.00 in
03:10 73.9 °F 72.7 °F 29.97 in Calm     96 % 0.00 in
03:15 73.9 °F 72.7 °F 29.97 in Calm     96 % 0.00 in
03:21 73.9 °F 73.0 °F 29.97 in Calm     97 % 0.00 in
03:26 73.9 °F 73.0 °F 29.97 in Calm     97 % 0.00 in
03:31 73.9 °F 73.0 °F 29.97 in Calm     97 % 0.00 in
03:36 73.9 °F 72.7 °F 29.97 in Calm     96 % 0.00 in
03:41 73.9 °F 72.7 °F 29.97 in Calm     96 % 0.00 in
03:46 73.9 °F 72.7 °F 29.97 in Calm     96 % 0.00 in
03:51 73.9 °F 73.0 °F 29.97 in Calm     97 % 0.00 in
03:56 73.8 °F 72.9 °F 29.97 in Calm     97 % 0.00 in
04:01 73.8 °F 72.9 °F 29.96 in Calm     97 % 0.00 in
04:06 73.8 °F 72.9 °F 29.96 in Calm     97 % 0.00 in
04:11 73.6 °F 72.7 °F 29.96 in Calm     97 % 0.00 in
04:16 73.4 °F 72.5 °F 29.96 in Calm     97 % 0.00 in
04:21 73.2 °F 72.3 °F 29.96 in Calm     97 % 0.00 in
04:26 73.2 °F 72.3 °F 29.97 in Calm     97 % 0.00 in
04:31 73.0 °F 72.1 °F 29.97 in Calm     97 % 0.00 in
04:36 72.9 °F 72.0 °F 29.96 in Calm     97 % 0.00 in
04:41 72.7 °F 71.8 °F 29.96 in Calm     97 % 0.00 in
04:46 72.9 °F 72.0 °F 29.96 in Calm     97 % 0.00 in
04:51 73.0 °F 72.5 °F 29.96 in Calm     98 % 0.00 in
04:56 73.0 °F 72.5 °F 29.96 in Calm     98 % 0.00 in
05:01 73.0 °F 72.1 °F 29.96 in Calm     97 % 0.00 in
05:06 73.0 °F 72.5 °F 29.97 in Calm     98 % 0.00 in
05:11 73.0 °F 72.1 °F 29.97 in Calm     97 % 0.00 in
05:16 72.9 °F 72.0 °F 29.97 in Calm     97 % 0.00 in
05:21 72.9 °F 72.3 °F 29.97 in Calm     98 % 0.00 in
05:26 73.0 °F 72.5 °F 29.97 in Calm     98 % 0.00 in
05:31 73.0 °F 72.5 °F 29.97 in Calm     98 % 0.00 in
05:37 73.0 °F 72.5 °F 29.97 in Calm     98 % 0.00 in
05:42 73.0 °F 72.5 °F 29.98 in Calm     98 % 0.00 in
05:47 73.0 °F 72.5 °F 29.98 in Calm     98 % 0.00 in
05:52 73.0 °F 72.5 °F 29.98 in Calm     98 % 0.00 in
05:57 72.9 °F 72.3 °F 29.98 in Calm     98 % 0.00 in
06:01 72.7 °F 72.1 °F 29.98 in Calm     98 % 0.00 in
06:07 72.9 °F 72.3 °F 29.98 in Calm     98 % 0.00 in
06:12 72.9 °F 72.3 °F 29.98 in Calm     98 % 0.00 in
06:16 72.9 °F 72.3 °F 29.99 in Calm     98 % 0.00 in
06:22 72.9 °F 72.3 °F 29.98 in Calm     98 % 0.00 in
06:27 72.9 °F 72.3 °F 29.99 in Calm     98 % 0.00 in
06:32 72.9 °F 72.3 °F 29.99 in Calm     98 % 0.00 in
06:37 72.9 °F 72.3 °F 29.99 in Calm     98 % 0.00 in
06:47 72.7 °F 72.1 °F 29.99 in Calm     98 % 0.00 in
06:52 72.7 °F 72.1 °F 29.99 in Calm     98 % 0.00 in
06:57 72.9 °F 72.5 °F 29.99 in Calm     99 % 0.00 in
07:02 72.9 °F 72.3 °F 29.99 in Calm     98 % 0.00 in
07:07 72.9 °F 72.3 °F 29.99 in Calm     98 % 0.00 in
07:12 72.9 °F 72.3 °F 29.99 in Calm     98 % 0.00 in
07:17 72.9 °F 72.3 °F 29.99 in Calm     98 % 0.00 in
07:22 73.0 °F 72.5 °F 29.99 in Calm     98 % 0.00 in
07:27 73.2 °F 72.7 °F 30.00 in Calm     98 % 0.00 in
07:32 73.4 °F 72.9 °F 29.99 in Calm     98 % 0.00 in
07:42 73.6 °F 73.0 °F 30.00 in Calm     98 % 0.00 in
07:47 73.9 °F 73.4 °F 30.00 in Calm     98 % 0.00 in
07:52 74.3 °F 73.8 °F 30.00 in Calm     98 % 0.00 in
07:57 74.8 °F 74.3 °F 30.00 in Calm     98 % 0.00 in
08:02 75.6 °F 75.0 °F 30.00 in Calm     98 % 0.00 in
08:07 75.9 °F 74.7 °F 30.00 in Calm   1.0 mph 96 % 0.00 in
08:12 76.3 °F 75.0 °F 30.00 in NW 1.0 mph 2.0 mph 96 % 0.00 in
08:17 76.8 °F 75.6 °F 30.00 in Calm   2.0 mph 96 % 0.00 in
08:22 77.4 °F 75.6 °F 30.00 in Calm   2.0 mph 94 % 0.00 in
08:27 78.1 °F 76.3 °F 30.00 in Calm   2.0 mph 94 % 0.00 in
08:32 78.4 °F 75.9 °F 30.00 in NNW 1.0 mph 2.0 mph 92 % 0.00 in
08:37 78.8 °F 75.9 °F 30.00 in NNW 1.0 mph 3.0 mph 91 % 0.00 in
08:42 79.2 °F 75.9 °F 30.00 in NW 1.0 mph 3.0 mph 90 % 0.00 in
08:47 79.5 °F 76.6 °F 30.00 in NW 1.0 mph 3.0 mph 91 % 0.00 in
08:52 80.1 °F 76.8 °F 30.00 in NW 1.0 mph 3.0 mph 90 % 0.00 in
08:57 80.8 °F 77.2 °F 30.00 in Calm   3.0 mph 89 % 0.00 in
09:02 81.5 °F 77.5 °F 30.00 in WNW 1.0 mph 2.0 mph 88 % 0.00 in
09:07 81.7 °F 77.0 °F 30.00 in WNW 2.0 mph 3.0 mph 86 % 0.00 in
09:12 81.9 °F 77.5 °F 30.00 in NW 2.0 mph 4.0 mph 87 % 0.00 in
09:17 82.0 °F 78.1 °F 30.00 in NNW 2.0 mph 4.0 mph 88 % 0.00 in
09:22 82.6 °F 77.9 °F 30.00 in NW 3.0 mph 4.0 mph 86 % 0.00 in
09:27 83.1 °F 78.4 °F 30.00 in Calm   4.0 mph 86 % 0.00 in
09:32 84.0 °F 79.0 °F 30.00 in Calm   4.0 mph 85 % 0.00 in
09:37 83.8 °F 78.1 °F 30.00 in Calm   5.0 mph 83 % 0.00 in
09:42 84.2 °F 78.8 °F 30.00 in Calm   5.0 mph 84 % 0.00 in
09:47 84.9 °F 78.4 °F 30.00 in WNW 2.0 mph 5.0 mph 81 % 0.00 in
09:52 85.5 °F 79.0 °F 30.00 in Calm   3.0 mph 81 % 0.00 in
09:57 85.6 °F 78.4 °F 30.00 in SE 2.0 mph 4.0 mph 79 % 0.00 in
10:02 85.5 °F 77.7 °F 30.00 in Calm   4.0 mph 78 % 0.00 in
10:07 85.8 °F 78.1 °F 30.00 in Calm   4.0 mph 78 % 0.00 in
10:12 86.5 °F 77.7 °F 30.00 in NW 2.0 mph 3.0 mph 75 % 0.00 in
10:17 86.7 °F 77.9 °F 29.99 in WSW 1.0 mph 3.0 mph 75 % 0.00 in
10:22 87.3 °F 77.9 °F 30.00 in SSW 1.0 mph 4.0 mph 74 % 0.00 in
10:27 87.1 °F 77.4 °F 30.00 in NW 4.0 mph 4.0 mph 73 % 0.00 in
10:32 86.0 °F 76.8 °F 30.00 in Calm   4.0 mph 74 % 0.00 in
10:37 86.5 °F 78.4 °F 30.00 in South 1.0 mph 4.0 mph 77 % 0.00 in
10:42 87.4 °F 77.7 °F 30.00 in Calm   4.0 mph 73 % 0.00 in
10:47 87.4 °F 75.2 °F 30.00 in WNW 3.0 mph 5.0 mph 67 % 0.00 in
10:52 87.3 °F 75.4 °F 30.00 in Calm   5.0 mph 68 % 0.00 in
10:57 88.3 °F 76.8 °F 30.00 in NW 1.0 mph 5.0 mph 69 % 0.00 in
11:02 89.1 °F 75.2 °F 30.00 in West 1.0 mph 5.0 mph 64 % 0.00 in
11:07 89.1 °F 76.6 °F 30.00 in SSW 1.0 mph 4.0 mph 67 % 0.00 in
11:12 89.8 °F 75.6 °F 30.00 in Calm   4.0 mph 63 % 0.00 in
11:17 90.3 °F 75.6 °F 30.00 in Calm   4.0 mph 62 % 0.00 in
11:22 90.0 °F 75.2 °F 30.00 in NW 5.0 mph 5.0 mph 62 % 0.00 in
11:27 88.9 °F 75.6 °F 30.00 in SSW 1.0 mph 6.0 mph 65 % 0.00 in
11:32 88.7 °F 75.9 °F 30.00 in East 1.0 mph 7.0 mph 66 % 0.00 in
11:37 89.1 °F 73.9 °F 30.00 in Calm   7.0 mph 61 % 0.00 in
11:42 89.1 °F 74.3 °F 30.00 in SSW 2.0 mph 7.0 mph 62 % 0.00 in
11:47 89.2 °F 75.0 °F 30.00 in NW 3.0 mph 4.0 mph 63 % 0.00 in
11:52 88.5 °F 75.7 °F 30.00 in NNW 3.0 mph 9.0 mph 66 % 0.00 in
11:57 88.5 °F 75.2 °F 30.00 in NNW 5.0 mph 9.0 mph 65 % 0.00 in
12:02 89.1 °F 76.3 °F 29.99 in Calm   9.0 mph 66 % 0.00 in
12:07 90.0 °F 76.1 °F 29.99 in NE 2.0 mph 5.0 mph 64 % 0.00 in
12:12 90.1 °F 76.3 °F 29.99 in ESE 2.0 mph 5.0 mph 64 % 0.00 in
12:17 90.7 °F 75.4 °F 29.99 in NNW 3.0 mph 4.0 mph 61 % 0.00 in
12:22 90.3 °F 75.0 °F 29.99 in Calm   6.0 mph 61 % 0.00 in
12:27 90.1 °F 75.9 °F 29.99 in NW 4.0 mph 6.0 mph 63 % 0.00 in
12:32 89.6 °F 75.7 °F 29.99 in NW 2.0 mph 6.0 mph 64 % 0.00 in
12:37 89.4 °F 75.6 °F 29.98 in NW 2.0 mph 5.0 mph 64 % 0.00 in
12:43 89.4 °F 76.6 °F 29.98 in WNW 1.0 mph 5.0 mph 66 % 0.00 in
12:48 90.1 °F 74.3 °F 29.98 in NW 3.0 mph 5.0 mph 60 % 0.00 in
12:53 89.8 °F 74.5 °F 29.97 in East 1.0 mph 5.0 mph 61 % 0.00 in
12:58 90.0 °F 75.7 °F 29.97 in Calm   5.0 mph 63 % 0.00 in
13:03 90.3 °F 75.0 °F 29.97 in NW 1.0 mph 5.0 mph 61 % 0.00 in
13:08 90.3 °F 74.5 °F 29.97 in ENE 2.0 mph 4.0 mph 60 % 0.00 in
13:13 90.1 °F 74.8 °F 29.97 in NW 4.0 mph 4.0 mph 61 % 0.00 in
13:18 90.1 °F 75.9 °F 29.97 in WNW 2.0 mph 9.0 mph 63 % 0.00 in
13:23 90.7 °F 75.4 °F 29.96 in WNW 4.0 mph 9.0 mph 61 % 0.00 in
13:28 90.5 °F 74.7 °F 29.96 in West 3.0 mph 9.0 mph 60 % 0.00 in
13:33 90.7 °F 74.8 °F 29.96 in WNW 3.0 mph 7.0 mph 60 % 0.00 in
13:38 90.3 °F 74.5 °F 29.96 in Calm   6.0 mph 60 % 0.00 in
13:43 90.1 °F 74.8 °F 29.96 in NW 5.0 mph 6.0 mph 61 % 0.00 in
13:48 89.8 °F 75.0 °F 29.96 in NNW 2.0 mph 6.0 mph 62 % 0.00 in
13:53 89.4 °F 75.2 °F 29.96 in NE 2.0 mph 6.0 mph 63 % 0.00 in
13:58 89.6 °F 74.8 °F 29.96 in NW 3.0 mph 6.0 mph 62 % 0.00 in
14:03 89.8 °F 75.0 °F 29.96 in North 1.0 mph 6.0 mph 62 % 0.00 in
14:04 89.8 °F 75.0 °F 29.95 in WNW 1.0 mph 6.0 mph 62 % 0.00 in
14:09 90.7 °F 75.9 °F 29.95 in East 1.0 mph 5.0 mph 62 % 0.00 in
14:14 91.2 °F 75.9 °F 29.95 in Calm   6.0 mph 61 % 0.00 in
14:19 91.8 °F 75.4 °F 29.95 in Calm   6.0 mph 59 % 0.00 in
14:24 91.8 °F 74.3 °F 29.94 in NNW 3.0 mph 6.0 mph 57 % 0.00 in
14:29 91.0 °F 74.7 °F 29.94 in Calm   7.0 mph 59 % 0.00 in
14:34 90.9 °F 75.0 °F 29.94 in WSW 1.0 mph 7.0 mph 60 % 0.00 in
14:39 91.8 °F 76.8 °F 29.94 in ESE 5.0 mph 7.0 mph 62 % 0.00 in
14:40 91.9 °F 76.1 °F 29.94 in NNE 1.0 mph 7.0 mph 60 % 0.00 in
14:45 92.7 °F 75.2 °F 29.94 in NW 1.0 mph 6.0 mph 57 % 0.00 in
14:49 92.7 °F 73.0 °F 29.94 in Calm   6.0 mph 53 % 0.00 in
14:54 92.7 °F 73.6 °F 29.94 in Calm   6.0 mph 54 % 0.00 in
15:00 92.7 °F 72.5 °F 29.94 in North 1.0 mph 4.0 mph 52 % 0.00 in
15:05 92.3 °F 72.7 °F 29.93 in ESE 1.0 mph 5.0 mph 53 % 0.00 in
15:10 92.5 °F 73.9 °F 29.94 in Calm   5.0 mph 55 % 0.00 in
15:15 93.4 °F 73.8 °F 29.94 in NW 1.0 mph 5.0 mph 53 % 0.00 in
15:20 93.7 °F 74.7 °F 29.93 in NW 2.0 mph 5.0 mph 54 % 0.00 in
15:25 93.6 °F 74.5 °F 29.93 in East 1.0 mph 5.0 mph 54 % 0.00 in
15:30 93.0 °F 74.5 °F 29.93 in NW 3.0 mph 6.0 mph 55 % 0.00 in
15:35 92.1 °F 74.1 °F 29.93 in Calm   6.0 mph 56 % 0.00 in
15:40 92.1 °F 73.6 °F 29.93 in WNW 2.0 mph 6.0 mph 55 % 0.00 in
15:45 91.9 °F 73.9 °F 29.93 in ENE 1.0 mph 6.0 mph 56 % 0.00 in
15:50 91.8 °F 74.3 °F 29.92 in NW 1.0 mph 5.0 mph 57 % 0.00 in
15:55 91.8 °F 73.2 °F 29.92 in NW 2.0 mph 4.0 mph 55 % 0.00 in
16:00 92.1 °F 73.6 °F 29.91 in ESE 2.0 mph 4.0 mph 55 % 0.00 in
16:05 92.5 °F 73.9 °F 29.91 in ESE 1.0 mph 4.0 mph 55 % 0.00 in
16:10 92.7 °F 74.1 °F 29.91 in Calm   4.0 mph 55 % 0.00 in
16:15 92.8 °F 73.2 °F 29.91 in ENE 2.0 mph 5.0 mph 53 % 0.00 in
16:16 92.7 °F 73.6 °F 29.91 in ENE 4.0 mph 5.0 mph 54 % 0.00 in
16:21 92.3 °F 73.2 °F 29.90 in East 2.0 mph 5.0 mph 54 % 0.00 in
16:26 92.3 °F 73.8 °F 29.90 in Calm   5.0 mph 55 % 0.00 in
16:31 92.1 °F 74.1 °F 29.90 in East 1.0 mph 5.0 mph 56 % 0.00 in
16:36 92.3 °F 73.8 °F 29.90 in NW 2.0 mph 4.0 mph 55 % 0.00 in
16:38 92.1 °F 72.5 °F 29.90 in NW 2.0 mph 4.0 mph 53 % 0.00 in
16:43 91.8 °F 73.8 °F 29.90 in Calm   5.0 mph 56 % 0.00 in
16:48 91.8 °F 74.3 °F 29.90 in WNW 2.0 mph 5.0 mph 57 % 0.00 in
16:53 91.8 °F 73.8 °F 29.90 in Calm   5.0 mph 56 % 0.00 in
16:58 91.8 °F 73.8 °F 29.90 in NW 3.0 mph 5.0 mph 56 % 0.00 in
17:03 91.4 °F 73.0 °F 29.90 in NW 2.0 mph 6.0 mph 55 % 0.00 in
17:08 91.0 °F 73.8 °F 29.90 in NW 1.0 mph 6.0 mph 57 % 0.00 in
17:13 90.9 °F 74.1 °F 29.90 in NW 2.0 mph 6.0 mph 58 % 0.00 in
17:18 90.7 °F 73.9 °F 29.90 in NW 1.0 mph 4.0 mph 58 % 0.00 in
17:23 90.5 °F 73.2 °F 29.90 in Calm   4.0 mph 57 % 0.00 in
17:28 90.7 °F 73.9 °F 29.89 in NNW 1.0 mph 6.0 mph 58 % 0.00 in
17:34 91.2 °F 73.8 °F 29.89 in Calm   6.0 mph 57 % 0.00 in
17:39 91.6 °F 74.7 °F 29.89 in Calm   6.0 mph 58 % 0.00 in
17:44 91.8 °F 74.3 °F 29.89 in Calm   3.0 mph 57 % 0.00 in
17:49 91.8 °F 74.3 °F 29.89 in Calm   3.0 mph 57 % 0.00 in
17:54 92.1 °F 74.7 °F 29.90 in ESE 1.0 mph 3.0 mph 57 % 0.00 in
17:59 92.5 °F 75.0 °F 29.90 in ESE 2.0 mph 3.0 mph 57 % 0.00 in
18:04 91.9 °F 73.4 °F 29.89 in Calm   3.0 mph 55 % 0.00 in
18:09 91.6 °F 74.1 °F 29.89 in ENE 1.0 mph 4.0 mph 57 % 0.00 in
18:14 91.0 °F 73.8 °F 29.89 in East 3.0 mph 4.0 mph 57 % 0.00 in
18:19 90.7 °F 73.9 °F 29.89 in ENE 1.0 mph 4.0 mph 58 % 0.00 in
18:24 91.0 °F 74.1 °F 29.89 in Calm   4.0 mph 58 % 0.00 in
18:29 91.0 °F 74.1 °F 29.89 in ESE 2.0 mph 4.0 mph 58 % 0.00 in
18:34 90.9 °F 74.1 °F 29.89 in ENE 3.0 mph 5.0 mph 58 % 0.00 in
18:39 90.7 °F 73.9 °F 29.89 in SE 2.0 mph 5.0 mph 58 % 0.00 in
18:44 90.1 °F 73.4 °F 29.89 in ENE 1.0 mph 5.0 mph 58 % 0.00 in
18:49 89.8 °F 73.6 °F 29.89 in ESE 2.0 mph 4.0 mph 59 % 0.00 in
18:54 89.2 °F 73.6 °F 29.89 in Calm   4.0 mph 60 % 0.00 in
18:59 89.1 °F 73.9 °F 29.89 in ESE 1.0 mph 4.0 mph 61 % 0.00 in
19:04 88.9 °F 73.8 °F 29.89 in ENE 1.0 mph 4.0 mph 61 % 0.00 in
19:09 88.7 °F 73.9 °F 29.89 in East 1.0 mph 3.0 mph 62 % 0.00 in
19:14 88.5 °F 73.8 °F 29.89 in SE 1.0 mph 3.0 mph 62 % 0.00 in
19:19 88.2 °F 73.4 °F 29.89 in ENE 1.0 mph 3.0 mph 62 % 0.00 in
19:24 88.0 °F 73.8 °F 29.89 in East 1.0 mph 4.0 mph 63 % 0.00 in
19:29 87.8 °F 73.6 °F 29.89 in ESE 1.0 mph 4.0 mph 63 % 0.00 in
19:34 87.6 °F 73.9 °F 29.89 in East 1.0 mph 4.0 mph 64 % 0.00 in
19:39 87.4 °F 73.8 °F 29.89 in SE 1.0 mph 3.0 mph 64 % 0.00 in
19:45 87.3 °F 73.6 °F 29.89 in Calm   3.0 mph 64 % 0.00 in
19:50 87.1 °F 73.9 °F 29.89 in SE 1.0 mph 3.0 mph 65 % 0.00 in
19:55 86.7 °F 73.9 °F 29.89 in Calm   2.0 mph 66 % 0.00 in
20:00 86.4 °F 73.6 °F 29.89 in ESE 1.0 mph 2.0 mph 66 % 0.00 in
20:05 86.2 °F 73.9 °F 29.90 in Calm   2.0 mph 67 % 0.00 in
20:10 85.8 °F 73.9 °F 29.90 in Calm   2.0 mph 68 % 0.00 in
20:15 85.5 °F 74.5 °F 29.90 in Calm   2.0 mph 70 % 0.00 in
20:20 84.9 °F 74.5 °F 29.90 in SSW 2.0 mph 4.0 mph 71 % 0.00 in
20:25 84.6 °F 75.0 °F 29.90 in South 2.0 mph 4.0 mph 73 % 0.00 in
20:30 84.4 °F 75.2 °F 29.90 in SSE 1.0 mph 4.0 mph 74 % 0.00 in
20:35 84.2 °F 75.4 °F 29.90 in SSW 3.0 mph 4.0 mph 75 % 0.00 in
20:40 84.0 °F 75.6 °F 29.90 in South 3.0 mph 5.0 mph 76 % 0.00 in
20:45 83.8 °F 75.9 °F 29.90 in SSE 2.0 mph 5.0 mph 77 % 0.00 in
20:50 83.7 °F 76.1 °F 29.89 in ESE 3.0 mph 5.0 mph 78 % 0.00 in
20:55 83.5 °F 76.3 °F 29.90 in SSE 3.0 mph 6.0 mph 79 % 0.00 in
21:00 83.3 °F 76.5 °F 29.90 in SSW 1.0 mph 7.0 mph 80 % 0.00 in
21:05 83.1 °F 76.6 °F 29.90 in SSE 2.0 mph 7.0 mph 81 % 0.00 in
21:10 82.9 °F 76.5 °F 29.91 in SSE 2.0 mph 7.0 mph 81 % 0.00 in
21:15 82.8 °F 76.6 °F 29.91 in South 3.0 mph 6.0 mph 82 % 0.00 in
21:20 82.6 °F 76.5 °F 29.91 in Calm   6.0 mph 82 % 0.00 in
21:25 82.4 °F 76.3 °F 29.91 in SSW 2.0 mph 6.0 mph 82 % 0.00 in
21:30 82.2 °F 76.1 °F 29.92 in SSW 3.0 mph 6.0 mph 82 % 0.00 in
21:35 82.2 °F 76.1 °F 29.92 in SSE 1.0 mph 4.0 mph 82 % 0.00 in
21:40 82.0 °F 76.3 °F 29.92 in South 2.0 mph 4.0 mph 83 % 0.00 in
21:45 82.0 °F 76.3 °F 29.92 in South 1.0 mph 3.0 mph 83 % 0.00 in
21:50 81.9 °F 76.1 °F 29.92 in SSE 2.0 mph 3.0 mph 83 % 0.00 in
21:55 81.7 °F 75.9 °F 29.92 in SSW 2.0 mph 4.0 mph 83 % 0.00 in
22:00 81.7 °F 75.9 °F 29.92 in South 1.0 mph 4.0 mph 83 % 0.00 in
22:05 81.7 °F 75.9 °F 29.92 in SSE 1.0 mph 5.0 mph 83 % 0.00 in
22:10 81.5 °F 75.9 °F 29.92 in SSW 1.0 mph 5.0 mph 83 % 0.00 in
22:15 81.3 °F 75.7 °F 29.93 in SE 1.0 mph 5.0 mph 83 % 0.00 in
22:20 81.1 °F 75.9 °F 29.93 in South 1.0 mph 4.0 mph 84 % 0.00 in
22:25 81.0 °F 75.7 °F 29.93 in Calm   2.0 mph 84 % 0.00 in
22:30 80.6 °F 75.4 °F 29.93 in Calm   2.0 mph 84 % 0.00 in
22:35 80.4 °F 75.6 °F 29.93 in Calm   1.0 mph 85 % 0.00 in
22:40 80.2 °F 75.4 °F 29.93 in Calm   1.0 mph 85 % 0.00 in
22:45 80.2 °F 75.4 °F 29.94 in Calm   1.0 mph 85 % 0.00 in
22:50 79.9 °F 75.4 °F 29.94 in Calm   1.0 mph 86 % 0.00 in
22:55 79.7 °F 75.2 °F 29.94 in Calm   1.0 mph 86 % 0.00 in
23:00 79.5 °F 75.4 °F 29.94 in Calm   1.0 mph 87 % 0.00 in
23:05 79.5 °F 75.4 °F 29.95 in Calm   1.0 mph 87 % 0.00 in
23:11 79.5 °F 75.4 °F 29.95 in Calm   1.0 mph 87 % 0.00 in
23:16 79.5 °F 75.4 °F 29.95 in Calm   2.0 mph 87 % 0.00 in
23:21 79.3 °F 75.2 °F 29.95 in Calm   2.0 mph 87 % 0.00 in
23:26 79.2 °F 75.0 °F 29.96 in Calm   2.0 mph 87 % 0.00 in
23:31 79.0 °F 75.2 °F 29.96 in Calm     88 % 0.00 in
23:36 78.8 °F 75.0 °F 29.96 in Calm     88 % 0.00 in
23:41 78.8 °F 75.2 °F 29.97 in Calm     89 % 0.00 in
23:46 78.8 °F 75.2 °F 29.97 in Calm     89 % 0.00 in
23:51 78.8 °F 75.2 °F 29.97 in Calm     89 % 0.00 in
23:56 78.6 °F 75.0 °F 29.97 in Calm     89 % 0.00 in
Spring, Texas: Villages of Bridgestone
Compliments of Weather Underground - 2.75 mb

Script developed by  Jim McMurry - jmcmurry@mwt.net Adapted for the template by  Wim van der Kuil - Leuven-Template.eu

You find our weather info also at:

UK Metoffice

WeatherCloud

Weather Underground

Mid-South Weather Network

AWEKAS

Citizen Weather Observer Program (CWOP)

HAMweather, WeatherForYou, PWS Weather

Equipment we use:

Weather-station
Davis Vantage Vue

Weather-program
Meteohub

Weather-server
Debian 7.9 x86 (Guest)

Provider
DreamHost

Davis Vantage Vue

Meteohub

Debian 7.9 x86 (Guest)

DreamHost